Time;durP1;ratioP1;P1;durP2;ratioP2;P2;SDS_P1;SDS_P2;PMS_P1;PMS_P2;Temp;Humidity;BMP_temperature;BMP_pressure;BME280_temperature;BME280_humidity;BME280_pressure;Samples;Min_cycle;Max_cycle;Signal;HPM_P1;HPM_P2
2023/05/31 00:00:08;;;;;;;315.98;147.07;;;;;;;19.32;100.00;99596.41;346594;28;1330;-82
2023/05/31 00:00:18;;;;;;;314.90;148.25;;;;;;;19.32;100.00;99607.00;346048;28;1252;-82
2023/05/31 00:00:29;;;;;;;317.20;148.87;;;;;;;19.32;100.00;99601.72;347523;28;1317;-82
2023/05/31 00:00:39;;;;;;;318.40;149.52;;;;;;;19.32;100.00;99601.72;344744;28;924;-82
2023/05/31 00:00:49;;;;;;;320.70;150.07;;;;;;;19.32;100.00;99601.72;346393;28;797;-82
2023/05/31 00:01:00;;;;;;;322.83;151.50;;;;;;;19.32;100.00;99596.41;345561;28;1200;-82
2023/05/31 00:01:10;;;;;;;322.25;153.02;;;;;;;19.28;100.00;99590.47;344600;28;1593;-82
2023/05/31 00:01:21;;;;;;;321.77;151.60;;;;;;;19.31;100.00;99605.31;341972;28;1206;-82
2023/05/31 00:01:31;;;;;;;317.95;149.60;;;;;;;19.32;100.00;99598.22;344565;28;1329;-82
2023/05/31 00:01:41;;;;;;;316.20;149.50;;;;;;;19.32;100.00;99601.72;346357;28;1100;-82
2023/05/31 00:01:52;;;;;;;319.42;152.20;;;;;;;19.31;100.00;99605.31;344795;28;1245;-82
2023/05/31 00:02:03;;;;;;;324.83;153.33;;;;;;;19.30;100.00;99592.16;344001;28;1258;-82
2023/05/31 00:02:13;;;;;;;330.00;153.73;;;;;;;19.30;100.00;99597.47;348874;28;1027;-82
2023/05/31 00:02:24;;;;;;;325.63;151.10;;;;;;;19.30;100.00;99592.16;343536;28;862;-82
2023/05/31 00:02:34;;;;;;;325.63;151.23;;;;;;;19.33;100.00;99599.91;344856;28;1252;-82
2023/05/31 00:02:45;;;;;;;320.10;150.57;;;;;;;19.32;100.00;99599.06;344761;28;1256;-82
2023/05/31 00:02:55;;;;;;;320.90;150.43;;;;;;;19.30;100.00;99587.72;342781;28;1568;-81
2023/05/31 00:03:06;;;;;;;320.00;149.95;;;;;;;19.32;100.00;99588.44;341722;28;1430;-82
2023/05/31 00:03:16;;;;;;;320.80;150.88;;;;;;;19.32;100.00;99595.56;342599;28;1281;-82
2023/05/31 00:03:27;;;;;;;319.13;149.80;;;;;;;19.31;100.00;99599.16;340961;28;1167;-82
2023/05/31 00:03:40;;;;;;;321.77;152.07;;;;;;;19.32;100.00;99595.56;341726;28;1300;-82
2023/05/31 00:03:51;;;;;;;325.70;152.98;;;;;;;19.31;100.00;99597.38;339240;29;1408;-82
2023/05/31 00:04:02;;;;;;;325.63;153.30;;;;;;;19.31;100.00;99600.00;338612;29;996;-82
2023/05/31 00:04:12;;;;;;;324.25;152.60;;;;;;;19.30;100.00;99598.31;341913;28;1314;-82
2023/05/31 00:04:23;;;;;;;324.83;151.38;;;;;;;19.30;100.00;99593.03;342206;28;1074;-82
2023/05/31 00:04:34;;;;;;;328.77;152.73;;;;;;;19.30;100.00;99595.66;339631;29;1177;-82
2023/05/31 00:04:44;;;;;;;330.17;156.77;;;;;;;19.30;100.00;99595.66;340855;29;1303;-82
2023/05/31 00:04:55;;;;;;;322.63;155.60;;;;;;;19.30;100.00;99597.47;336817;29;1488;-82
2023/05/31 00:05:06;;;;;;;322.03;156.27;;;;;;;19.32;100.00;99599.06;336921;29;1476;-82
2023/05/31 00:05:16;;;;;;;317.50;150.60;;;;;;;19.31;100.00;99592.06;338199;29;1316;-81
2023/05/31 00:05:27;;;;;;;317.65;152.38;;;;;;;19.32;100.00;99596.41;336750;29;1373;-82
2023/05/31 00:05:37;;;;;;;315.17;151.20;;;;;;;19.31;100.00;99589.41;335255;29;1704;-82
2023/05/31 00:05:48;;;;;;;315.60;152.57;;;;;;;19.33;100.00;99599.91;337884;28;3128;-82
2023/05/31 00:05:58;;;;;;;316.55;152.98;;;;;;;19.32;100.00;99591.09;335740;29;2925;-82
2023/05/31 00:06:12;;;;;;;323.23;155.53;;;;;;;19.31;100.00;99594.72;333193;29;1972;-81
2023/05/31 00:06:23;;;;;;;322.20;152.07;;;;;;;19.32;100.00;99593.75;334107;29;3166;-81
2023/05/31 00:06:35;;;;;;;320.33;151.13;;;;;;;19.31;100.00;99594.72;335401;29;1505;-81
2023/05/31 00:06:45;;;;;;;312.75;149.65;;;;;;;19.31;100.00;99600.00;334305;29;1093;-81
2023/05/31 00:06:56;;;;;;;316.67;150.70;;;;;;;19.31;100.00;99605.31;334488;29;811;-83
2023/05/31 00:07:06;;;;;;;313.67;148.00;;;;;;;19.30;100.00;99598.31;331867;29;808;-82
2023/05/31 00:07:17;;;;;;;317.67;149.83;;;;;;;19.30;100.00;99593.03;333632;29;955;-82
2023/05/31 00:07:27;;;;;;;317.25;149.88;;;;;;;19.31;100.00;99594.72;331562;29;1457;-82
2023/05/31 00:07:37;;;;;;;321.63;151.20;;;;;;;19.30;100.00;99595.66;328112;30;1210;-82
2023/05/31 00:07:48;;;;;;;320.87;151.17;;;;;;;19.30;100.00;99600.97;328133;29;1765;-82
2023/05/31 00:07:58;;;;;;;319.42;151.48;;;;;;;19.27;100.00;99596.75;325854;30;1726;-82
2023/05/31 00:08:09;;;;;;;320.73;152.20;;;;;;;19.28;100.00;99610.88;325565;30;1423;-82
2023/05/31 00:08:19;;;;;;;322.42;151.95;;;;;;;19.25;100.00;99600.47;323224;30;2023;-82
2023/05/31 00:08:30;;;;;;;323.70;152.00;;;;;;;19.24;100.00;99597.00;321526;30;2206;-82
2023/05/31 00:08:40;;;;;;;321.27;150.52;;;;;;;19.25;100.00;99601.34;320520;30;1227;-81
2023/05/31 00:08:51;;;;;;;323.00;150.33;;;;;;;19.26;100.00;99596.88;322065;30;1619;-81
2023/05/31 00:09:02;;;;;;;321.80;149.93;;;;;;;19.25;100.00;99598.69;320650;30;1241;-82
2023/05/31 00:09:12;;;;;;;322.63;152.10;;;;;;;19.24;100.00;99594.34;320607;30;1179;-82
2023/05/31 00:09:23;;;;;;;317.73;151.95;;;;;;;19.26;100.00;99603.03;322015;30;1261;-82
2023/05/31 00:09:33;;;;;;;319.13;153.40;;;;;;;19.24;100.00;99596.13;320904;30;1896;-82
2023/05/31 00:09:44;;;;;;;322.23;154.10;;;;;;;19.25;100.00;99606.63;316264;30;2042;-82
2023/05/31 00:09:54;;;;;;;327.15;157.27;;;;;;;19.25;100.00;99596.03;316360;31;834;-82
2023/05/31 00:10:05;;;;;;;329.17;156.87;;;;;;;19.25;100.00;99600.47;313565;31;2331;-82
2023/05/31 00:10:15;;;;;;;329.08;155.38;;;;;;;19.23;100.00;99603.25;316154;30;2374;-82
2023/05/31 00:10:26;;;;;;;329.60;154.07;;;;;;;19.25;100.00;99603.97;319734;30;1233;-82
2023/05/31 00:10:36;;;;;;;331.17;154.67;;;;;;;19.24;100.00;99599.63;321780;30;2462;-82
2023/05/31 00:10:46;;;;;;;328.67;154.77;;;;;;;19.21;100.00;99599.03;320075;30;2534;-82
2023/05/31 00:10:57;;;;;;;328.23;154.05;;;;;;;19.23;100.00;99602.41;319700;30;1962;-82
2023/05/31 00:11:07;;;;;;;321.27;151.90;;;;;;;19.21;100.00;99593.72;318439;31;1234;-82
2023/05/31 00:11:19;;;;;;;316.85;150.25;;;;;;;19.24;100.00;99598.78;319537;30;1258;-82
2023/05/31 00:11:30;;;;;;;319.27;151.55;;;;;;;19.22;100.00;99601.56;318655;30;2042;-82
2023/05/31 00:11:40;;;;;;;320.93;152.93;;;;;;;19.21;100.00;99602.53;319670;30;2227;-82
2023/05/31 00:11:50;;;;;;;330.63;157.27;;;;;;;19.19;100.00;99599.16;315499;31;2225;-82
2023/05/31 00:12:01;;;;;;;331.88;158.45;;;;;;;19.19;100.00;99595.66;313849;31;2594;-82
2023/05/31 00:12:11;;;;;;;334.63;157.73;;;;;;;19.19;100.00;99604.44;312699;31;1288;-82
2023/05/31 00:12:22;;;;;;;331.70;155.60;;;;;;;19.16;100.00;99602.03;311666;31;1346;-82
2023/05/31 00:12:32;;;;;;;327.97;153.17;;;;;;;19.18;100.00;99605.41;310769;31;3253;-82
2023/05/31 00:12:42;;;;;;;325.52;150.38;;;;;;;19.17;100.00;99594.91;306907;31;3237;-82
2023/05/31 00:12:53;;;;;;;324.87;150.20;;;;;;;19.17;100.00;99602.88;306477;32;1263;-83
2023/05/31 00:13:03;;;;;;;324.13;148.43;;;;;;;19.19;100.00;99599.16;308575;31;3091;-82
2023/05/31 00:13:14;;;;;;;326.35;151.00;;;;;;;19.20;100.00;99602.66;310285;31;2390;-81
2023/05/31 00:13:24;;;;;;;330.07;154.03;;;;;;;19.19;100.00;99601.78;309656;31;1821;-81
2023/05/31 00:13:35;;;;;;;328.33;154.40;;;;;;;19.21;100.00;99599.03;307270;32;2038;-81
2023/05/31 00:13:45;;;;;;;327.57;153.10;;;;;;;19.21;100.00;99604.34;306147;31;2393;-82
2023/05/31 00:13:55;;;;;;;321.75;150.95;;;;;;;19.22;100.00;99600.72;308448;32;1377;-81
2023/05/31 00:14:06;;;;;;;323.87;153.63;;;;;;;19.23;100.00;99602.41;307099;31;3154;-81
2023/05/31 00:14:16;;;;;;;318.90;154.33;;;;;;;19.20;100.00;99598.19;306540;31;3568;-81
2023/05/31 00:14:27;;;;;;;320.30;154.40;;;;;;;19.23;100.00;99602.41;307516;31;4090;-81
2023/05/31 00:14:37;;;;;;;322.53;155.03;;;;;;;19.22;100.00;99601.56;307356;32;1547;-80
2023/05/31 00:14:47;;;;;;;324.80;153.57;;;;;;;19.24;100.00;99602.28;306041;32;4647;-80
2023/05/31 00:14:58;;;;;;;323.43;153.17;;;;;;;19.23;100.00;99603.25;305116;32;3624;-80
2023/05/31 00:15:08;;;;;;;319.70;155.98;;;;;;;19.24;100.00;99602.28;303150;32;2733;-81
2023/05/31 00:15:19;;;;;;;318.77;156.20;;;;;;;19.24;100.00;99609.41;306531;32;3931;-81
2023/05/31 00:15:30;;;;;;;320.60;155.82;;;;;;;19.25;100.00;99605.78;306071;32;3034;-81
2023/05/31 00:15:40;;;;;;;318.40;152.30;;;;;;;19.25;100.00;99605.78;305398;32;912;-81
2023/05/31 00:15:51;;;;;;;319.00;153.63;;;;;;;19.24;100.00;99602.28;304118;32;2700;-81
2023/05/31 00:16:01;;;;;;;318.17;154.43;;;;;;;19.22;100.00;99596.25;301645;32;3314;-81
2023/05/31 00:16:13;;;;;;;319.80;154.70;;;;;;;19.23;100.00;99602.41;298127;32;4116;-81
2023/05/31 00:16:23;;;;;;;319.40;154.18;;;;;;;19.21;100.00;99599.88;297073;33;870;-81
2023/05/31 00:16:34;;;;;;;321.77;154.87;;;;;;;19.23;100.00;99595.28;297545;32;5112;-81
2023/05/31 00:16:44;;;;;;;322.17;153.45;;;;;;;19.21;100.00;99599.88;296547;32;5722;-81
2023/05/31 00:16:56;;;;;;;323.83;153.13;;;;;;;19.22;100.00;99608.69;294244;33;1322;-82
2023/05/31 00:17:07;;;;;;;320.08;155.30;;;;;;;19.22;100.00;99606.88;292343;33;6507;-82
2023/05/31 00:17:19;;;;;;;317.95;159.90;;;;;;;19.24;100.00;99606.75;291545;33;4708;-82
2023/05/31 00:17:33;;;;;;;318.38;157.30;;;;;;;19.21;100.00;99596.38;293246;33;5387;-81
2023/05/31 00:17:43;;;;;;;317.70;152.68;;;;;;;19.23;100.00;99605.06;293914;33;4549;-82
2023/05/31 00:17:54;;;;;;;317.70;151.07;;;;;;;19.24;100.00;99601.44;294044;33;1263;-82
2023/05/31 00:18:04;;;;;;;321.20;151.80;;;;;;;19.23;100.00;99605.91;294462;33;4570;-81
2023/05/31 00:18:15;;;;;;;321.13;154.57;;;;;;;19.23;100.00;99607.72;290807;33;4798;-80
2023/05/31 00:18:25;;;;;;;321.13;153.77;;;;;;;19.23;100.00;99602.41;286972;34;1223;-81
2023/05/31 00:18:35;;;;;;;325.93;155.60;;;;;;;19.23;100.00;99599.75;285954;33;5719;-83
2023/05/31 00:18:46;;;;;;;324.73;152.35;;;;;;;19.23;100.00;99605.06;287508;33;7286;-80
2023/05/31 00:18:57;;;;;;;323.90;152.37;;;;;;;19.22;100.00;99608.69;288051;33;7536;-80
2023/05/31 00:19:08;;;;;;;318.67;151.43;;;;;;;19.22;100.00;99606.88;285507;34;1383;-80
2023/05/31 00:21:04;;;;;;;303.77;144.28;;;;;;;19.22;100.00;99603.38;2492897;27;20488;-81
2023/05/31 00:21:15;;;;;;;312.00;152.20;;;;;;;19.22;100.00;99603.38;353001;28;859;-81
2023/05/31 00:21:25;;;;;;;315.60;153.90;;;;;;;19.21;100.00;99604.34;350394;28;745;-81
2023/05/31 00:21:36;;;;;;;319.17;157.80;;;;;;;19.21;100.00;99601.69;347579;28;1328;-81
2023/05/31 00:21:46;;;;;;;317.13;158.35;;;;;;;19.21;100.00;99604.34;346098;28;1260;-81
2023/05/31 00:21:56;;;;;;;315.97;157.50;;;;;;;19.21;100.00;99609.66;346110;28;865;-81
2023/05/31 00:22:07;;;;;;;314.75;153.32;;;;;;;19.19;100.00;99607.09;346312;28;1352;-81
2023/05/31 00:22:17;;;;;;;317.90;151.70;;;;;;;19.20;100.00;99602.66;349519;28;1426;-81
2023/05/31 00:22:28;;;;;;;320.73;151.77;;;;;;;19.19;100.00;99600.94;347695;28;1366;-81
2023/05/31 00:22:38;;;;;;;321.33;151.60;;;;;;;19.22;100.00;99598.06;345990;28;1303;-81
2023/05/31 00:22:48;;;;;;;320.03;150.57;;;;;;;19.21;100.00;99604.34;347643;28;738;-81
2023/05/31 00:22:59;;;;;;;316.45;147.73;;;;;;;19.21;100.00;99604.34;344125;28;1342;-82
2023/05/31 00:23:10;;;;;;;315.13;146.60;;;;;;;19.22;100.00;99606.03;346146;28;1225;-82
2023/05/31 00:23:20;;;;;;;315.53;148.07;;;;;;;19.20;100.00;99605.28;345957;28;1401;-82
2023/05/31 00:23:31;;;;;;;314.83;149.00;;;;;;;19.20;100.00;99597.34;346094;28;1319;-82
2023/05/31 00:23:41;;;;;;;315.60;148.47;;;;;;;19.21;100.00;99609.66;346130;28;1273;-81
2023/05/31 00:23:51;;;;;;;314.47;146.93;;;;;;;19.17;100.00;99606.38;342077;28;1233;-81
2023/05/31 00:24:02;;;;;;;315.35;147.02;;;;;;;19.18;100.00;99605.41;344664;28;1311;-82
2023/05/31 00:24:12;;;;;;;317.10;150.37;;;;;;;19.20;100.00;99606.16;345225;28;3546;-81
2023/05/31 00:24:23;;;;;;;320.58;150.20;;;;;;;19.18;100.00;99600.09;342580;28;2629;-81
2023/05/31 00:24:33;;;;;;;324.90;151.70;;;;;;;19.18;100.00;99602.75;344772;28;1351;-81
2023/05/31 00:24:44;;;;;;;330.77;150.57;;;;;;;19.18;100.00;99602.75;345788;28;1863;-81
2023/05/31 00:24:55;;;;;;;330.73;152.20;;;;;;;19.19;100.00;99598.31;344657;28;1472;-81
2023/05/31 00:25:05;;;;;;;325.58;151.73;;;;;;;19.19;100.00;99607.09;347493;28;1437;-81
2023/05/31 00:25:16;;;;;;;316.90;149.80;;;;;;;19.19;100.00;99606.25;347228;28;1332;-81
2023/05/31 00:25:26;;;;;;;317.73;149.60;;;;;;;19.17;100.00;99608.19;347481;28;1028;-81
2023/05/31 00:25:37;;;;;;;320.85;149.00;;;;;;;19.19;100.00;99606.25;348920;28;1603;-81
2023/05/31 00:25:47;;;;;;;323.23;151.27;;;;;;;19.15;100.00;99595.03;343339;28;1286;-81
2023/05/31 00:25:57;;;;;;;320.67;150.57;;;;;;;19.19;100.00;99600.94;347465;28;1226;-81
2023/05/31 00:26:08;;;;;;;320.97;152.70;;;;;;;19.18;100.00;99599.25;347183;28;1315;-81
2023/05/31 00:26:18;;;;;;;316.27;149.63;;;;;;;19.18;100.00;99605.41;344750;28;1330;-81
2023/05/31 00:26:29;;;;;;;318.10;150.43;;;;;;;19.16;100.00;99601.19;341985;28;1259;-81
2023/05/31 00:26:39;;;;;;;322.00;149.97;;;;;;;19.17;100.00;99606.38;340860;28;856;-81
2023/05/31 00:26:49;;;;;;;324.30;149.50;;;;;;;19.18;100.00;99604.56;342218;28;877;-81
2023/05/31 00:27:00;;;;;;;324.10;148.90;;;;;;;19.17;100.00;99608.19;343815;28;1273;-81
2023/05/31 00:27:11;;;;;;;319.58;147.88;;;;;;;19.17;100.00;99598.41;346710;28;1363;-81
2023/05/31 00:27:21;;;;;;;321.93;149.97;;;;;;;19.18;100.00;99604.56;344725;28;1073;-81
2023/05/31 00:27:31;;;;;;;321.13;148.73;;;;;;;19.19;100.00;99603.59;349336;28;1120;-81
2023/05/31 00:27:42;;;;;;;325.40;152.53;;;;;;;19.18;100.00;99605.41;348312;28;1312;-82
2023/05/31 00:27:52;;;;;;;320.95;150.80;;;;;;;19.17;100.00;99602.88;344845;28;1437;-82
2023/05/31 00:28:03;;;;;;;321.13;152.87;;;;;;;19.17;100.00;99608.19;343272;28;1210;-82
2023/05/31 00:28:14;;;;;;;316.80;150.40;;;;;;;19.18;100.00;99607.22;343562;28;816;-82
2023/05/31 00:28:24;;;;;;;315.38;150.43;;;;;;;19.18;100.00;99604.56;347497;28;1512;-82
2023/05/31 00:28:35;;;;;;;309.37;146.63;;;;;;;19.17;100.00;99606.38;348980;28;808;-81
2023/05/31 00:28:45;;;;;;;308.70;146.15;;;;;;;19.15;100.00;99607.44;345054;28;914;-81
2023/05/31 00:28:56;;;;;;;312.37;148.70;;;;;;;19.17;100.00;99609.03;341807;28;1429;-81
2023/05/31 00:29:06;;;;;;;314.17;150.05;;;;;;;19.18;100.00;99604.56;337738;28;1352;-81
2023/05/31 00:29:16;;;;;;;317.73;152.00;;;;;;;19.14;100.00;99595.16;345939;28;1487;-81
2023/05/31 00:29:27;;;;;;;319.03;151.40;;;;;;;19.16;100.00;99601.19;341959;28;1316;-81
2023/05/31 00:29:37;;;;;;;323.15;152.60;;;;;;;19.16;100.00;99604.69;341990;28;1234;-81
2023/05/31 00:29:48;;;;;;;323.43;152.93;;;;;;;19.18;100.00;99609.88;344878;28;1519;-81
2023/05/31 00:29:58;;;;;;;321.05;150.48;;;;;;;19.17;100.00;99605.53;341989;28;1486;-81
2023/05/31 00:30:09;;;;;;;319.70;150.00;;;;;;;19.17;100.00;99608.19;339502;29;1199;-81
2023/05/31 00:30:20;;;;;;;314.50;147.82;;;;;;;19.15;100.00;99610.09;338640;29;1454;-82
2023/05/31 00:30:30;;;;;;;313.90;147.55;;;;;;;19.13;100.00;99599.59;340718;29;1303;-83
2023/05/31 00:30:42;;;;;;;314.33;149.67;;;;;;;19.11;100.00;99604.19;339481;29;930;-82
2023/05/31 00:30:53;;;;;;;320.45;151.13;;;;;;;19.13;100.00;99602.25;337024;29;1578;-82
2023/05/31 00:31:05;;;;;;;322.92;151.50;;;;;;;19.15;100.00;99610.09;337028;29;861;-82
2023/05/31 00:31:16;;;;;;;327.02;153.35;;;;;;;19.12;100.00;99603.22;336470;29;1772;-81
2023/05/31 00:31:26;;;;;;;330.60;153.90;;;;;;;19.14;100.00;99597.81;332420;29;1923;-81
2023/05/31 00:31:36;;;;;;;334.00;155.00;;;;;;;19.15;100.00;99607.44;331798;29;1123;-81
2023/05/31 00:31:47;;;;;;;327.27;152.55;;;;;;;19.14;100.00;99603.97;333458;29;2054;-81
2023/05/31 00:31:57;;;;;;;328.37;155.77;;;;;;;19.15;100.00;99604.81;336428;29;2272;-81
2023/05/31 00:32:08;;;;;;;327.15;154.90;;;;;;;19.15;100.00;99605.66;338132;29;1377;-81
2023/05/31 00:32:18;;;;;;;327.63;154.80;;;;;;;19.16;100.00;99609.16;332999;29;1248;-81
2023/05/31 00:32:28;;;;;;;323.87;151.27;;;;;;;19.15;100.00;99602.16;333589;29;1193;-81
2023/05/31 00:32:39;;;;;;;325.23;152.57;;;;;;;19.14;100.00;99600.47;334793;29;1322;-81
2023/05/31 00:32:49;;;;;;;324.23;153.20;;;;;;;19.16;100.00;99606.50;334354;29;833;-82
2023/05/31 00:33:00;;;;;;;324.63;153.27;;;;;;;19.14;100.00;99603.09;336840;29;1242;-82
2023/05/31 00:33:11;;;;;;;326.10;153.50;;;;;;;19.15;100.00;99604.81;335671;29;1943;-82
2023/05/31 00:33:22;;;;;;;328.27;152.77;;;;;;;19.14;100.00;99603.09;327474;30;3475;-81
2023/05/31 00:33:32;;;;;;;330.20;153.53;;;;;;;19.14;100.00;99613.72;327724;29;2671;-81
2023/05/31 00:33:45;;;;;;;331.80;154.23;;;;;;;19.12;100.00;99605.88;329148;29;2866;-81
2023/05/31 00:33:56;;;;;;;333.02;155.15;;;;;;;19.12;100.00;99608.53;327832;30;2455;-81
2023/05/31 00:34:07;;;;;;;330.40;153.30;;;;;;;19.11;100.00;99611.31;320725;30;3124;-81
2023/05/31 00:34:17;;;;;;;332.70;154.43;;;;;;;19.13;100.00;99604.06;325709;30;2606;-81
2023/05/31 00:34:27;;;;;;;325.45;152.05;;;;;;;19.10;100.00;99601.66;327116;30;1633;-81
2023/05/31 00:34:38;;;;;;;326.93;155.50;;;;;;;19.13;100.00;99606.72;329307;30;1193;-81
2023/05/31 00:34:48;;;;;;;327.40;155.03;;;;;;;19.12;100.00;99610.34;323255;30;1282;-81
2023/05/31 00:34:59;;;;;;;327.05;155.10;;;;;;;19.13;100.00;99617.34;323526;30;1780;-81
2023/05/31 00:35:09;;;;;;;324.47;152.17;;;;;;;19.09;100.00;99600.81;320613;30;1886;-81
2023/05/31 00:35:20;;;;;;;319.50;152.80;;;;;;;19.11;100.00;99604.19;319501;30;1294;-81
2023/05/31 00:35:30;;;;;;;322.65;152.75;;;;;;;19.12;100.00;99611.19;317105;30;2438;-81
2023/05/31 00:35:41;;;;;;;324.77;152.33;;;;;;;19.12;100.00;99608.53;313982;30;2840;-81
2023/05/31 00:35:51;;;;;;;324.67;149.95;;;;;;;19.12;100.00;99618.31;310576;31;1274;-81
2023/05/31 00:36:02;;;;;;;323.60;149.83;;;;;;;19.14;100.00;99611.06;315345;31;3228;-81
2023/05/31 00:36:12;;;;;;;323.80;149.80;;;;;;;19.13;100.00;99614.69;314122;31;2970;-81
2023/05/31 00:36:23;;;;;;;325.27;150.18;;;;;;;19.13;100.00;99607.56;310640;31;1189;-81
2023/05/31 00:36:33;;;;;;;320.43;148.57;;;;;;;19.10;100.00;99605.16;310541;31;2903;-81
2023/05/31 00:36:43;;;;;;;320.00;147.23;;;;;;;19.14;100.00;99613.72;310846;31;2607;-81
2023/05/31 00:36:54;;;;;;;319.40;148.10;;;;;;;19.14;100.00;99608.41;312565;31;2088;-81
2023/05/31 00:37:05;;;;;;;320.25;148.48;;;;;;;19.12;100.00;99607.69;316319;31;814;-81
2023/05/31 00:37:15;;;;;;;320.55;148.73;;;;;;;19.13;100.00;99606.72;315313;31;2608;-81
2023/05/31 00:37:25;;;;;;;323.90;149.70;;;;;;;19.13;100.00;99609.38;309585;31;2800;-81
2023/05/31 00:37:37;;;;;;;326.73;152.60;;;;;;;19.14;100.00;99611.06;310230;31;1238;-81
2023/05/31 00:37:47;;;;;;;330.92;154.88;;;;;;;19.12;100.00;99611.19;305145;31;4126;-82
2023/05/31 00:37:58;;;;;;;330.90;155.00;;;;;;;19.11;100.00;99606.00;304280;32;3822;-81
2023/05/31 00:38:08;;;;;;;332.10;154.48;;;;;;;19.13;100.00;99607.56;300351;32;4756;-81
2023/05/31 00:38:19;;;;;;;328.13;153.60;;;;;;;19.10;100.00;99606.97;301254;32;1204;-81
2023/05/31 00:38:29;;;;;;;326.23;151.55;;;;;;;19.11;100.00;99609.50;302769;32;4168;-81
2023/05/31 00:38:41;;;;;;;326.13;152.23;;;;;;;19.12;100.00;99610.34;300507;32;3328;-81
2023/05/31 00:38:51;;;;;;;319.38;150.45;;;;;;;19.11;100.00;99608.66;299118;33;921;-82
2023/05/31 00:39:02;;;;;;;317.13;150.03;;;;;;;19.11;100.00;99606.84;300341;32;3336;-82
2023/05/31 00:39:12;;;;;;;319.40;152.38;;;;;;;19.11;100.00;99612.16;301866;32;3065;-82
2023/05/31 00:39:23;;;;;;;323.73;154.67;;;;;;;19.11;100.00;99608.66;299922;32;1237;-82
2023/05/31 00:39:35;;;;;;;323.77;154.73;;;;;;;19.09;100.00;99606.13;299776;32;1524;-81
2023/05/31 00:39:47;;;;;;;328.95;156.73;;;;;;;19.10;100.00;99609.59;296194;33;4940;-82
2023/05/31 00:39:57;;;;;;;326.38;157.45;;;;;;;19.09;100.00;99607.91;292055;33;5433;-81
2023/05/31 00:40:08;;;;;;;326.10;158.45;;;;;;;19.09;100.00;99610.56;291986;33;1257;-81
2023/05/31 00:40:18;;;;;;;317.77;153.73;;;;;;;19.11;100.00;99613.94;291089;34;1311;-82
2023/05/31 00:40:29;;;;;;;314.17;149.35;;;;;;;19.10;100.00;99609.59;290255;33;12545;-82
2023/05/31 00:40:39;;;;;;;314.53;150.27;;;;;;;19.10;100.00;99610.44;286956;34;6772;-82
2023/05/31 00:40:50;;;;;;;319.80;151.82;;;;;;;19.10;100.00;99617.56;282745;34;1225;-83
2023/05/31 00:41:01;;;;;;;324.35;153.98;;;;;;;19.10;100.00;99606.97;283576;34;5192;-82
2023/05/31 00:41:11;;;;;;;328.07;157.07;;;;;;;19.06;100.00;99603.69;281778;34;5191;-82
2023/05/31 00:41:23;;;;;;;333.05;158.35;;;;;;;19.08;100.00;99608.88;280041;35;1312;-82
2023/05/31 00:41:33;;;;;;;340.25;161.32;;;;;;;19.04;100.00;99613.59;286891;34;1575;-82
2023/05/31 00:43:27;;;;;;;302.80;145.84;;;;;;;19.05;100.00;99617.94;2497682;27;20591;-81
2023/05/31 00:43:37;;;;;;;313.73;156.43;;;;;;;19.04;100.00;99615.41;351663;28;1191;-81
2023/05/31 00:43:48;;;;;;;317.27;157.03;;;;;;;19.03;100.00;99611.06;348878;28;1332;-81
2023/05/31 00:43:58;;;;;;;321.10;157.25;;;;;;;19.05;100.00;99614.44;348832;28;1416;-81
2023/05/31 00:44:09;;;;;;;322.13;152.60;;;;;;;19.04;100.00;99618.06;348881;28;788;-81
2023/05/31 00:44:19;;;;;;;324.45;152.43;;;;;;;19.02;100.00;99615.53;348827;28;1231;-81
2023/05/31 00:44:30;;;;;;;324.00;151.53;;;;;;;19.02;100.00;99614.69;350202;28;1201;-81
2023/05/31 00:44:41;;;;;;;324.13;151.30;;;;;;;19.03;100.00;99611.06;350263;28;1251;-81
2023/05/31 00:44:51;;;;;;;320.80;148.40;;;;;;;19.04;100.00;99618.91;348849;28;1239;-81
2023/05/31 00:45:02;;;;;;;326.13;150.60;;;;;;;19.04;100.00;99621.56;350241;28;1203;-81
2023/05/31 00:45:12;;;;;;;327.20;149.90;;;;;;;19.04;100.00;99615.41;351121;28;1726;-82
2023/05/31 00:45:23;;;;;;;324.38;151.20;;;;;;;19.03;100.00;99613.72;349834;28;1337;-81
2023/05/31 00:45:33;;;;;;;317.80;149.83;;;;;;;19.04;100.00;99612.75;349039;28;1180;-81
2023/05/31 00:45:44;;;;;;;316.08;147.95;;;;;;;19.03;100.00;99611.06;346287;28;1253;-81
2023/05/31 00:45:54;;;;;;;318.07;148.20;;;;;;;19.00;100.00;99616.59;347457;28;1343;-81
2023/05/31 00:46:05;;;;;;;317.85;147.45;;;;;;;19.02;100.00;99614.69;348749;28;1262;-81
2023/05/31 00:46:31;;;;;;;315.77;147.47;;;;;;;19.00;100.00;99619.25;347518;28;1203;-81
2023/05/31 00:46:42;;;;;;;307.23;142.45;;;;;;;18.99;100.00;99620.22;346124;28;919;-82
2023/05/31 00:46:52;;;;;;;314.97;144.67;;;;;;;18.99;100.00;99614.91;346802;28;1395;-81
2023/05/31 00:47:03;;;;;;;316.15;145.45;;;;;;;18.97;100.00;99614.19;347508;28;1242;-81
2023/05/31 00:47:13;;;;;;;315.87;146.00;;;;;;;18.98;100.00;99615.88;347269;28;1347;-81
2023/05/31 00:47:25;;;;;;;312.73;145.65;;;;;;;18.97;100.00;99617.69;348373;28;1388;-81
2023/05/31 00:47:36;;;;;;;316.63;145.13;;;;;;;18.98;100.00;99618.53;345356;28;1393;-81
2023/05/31 00:47:46;;;;;;;315.43;143.87;;;;;;;18.98;100.00;99626.47;344665;28;1211;-81
2023/05/31 00:47:56;;;;;;;316.77;144.32;;;;;;;18.97;100.00;99615.03;346041;28;1353;-81
2023/05/31 00:48:07;;;;;;;317.40;146.77;;;;;;;18.97;100.00;99622.13;346598;28;1526;-81
2023/05/31 00:48:17;;;;;;;319.20;149.63;;;;;;;18.96;100.00;99621.28;343320;28;1317;-81
2023/05/31 00:48:28;;;;;;;318.90;149.93;;;;;;;18.94;100.00;99617.91;342435;28;824;-80
2023/05/31 00:48:40;;;;;;;316.77;147.02;;;;;;;18.98;100.00;99618.53;342151;28;1019;-81
2023/05/31 00:48:51;;;;;;;316.85;146.55;;;;;;;18.97;100.00;99624.78;343337;28;1416;-81
2023/05/31 00:49:01;;;;;;;317.43;147.40;;;;;;;18.97;100.00;99624.78;341962;28;1177;-81
2023/05/31 00:49:12;;;;;;;314.98;145.85;;;;;;;18.98;100.00;99618.53;344852;28;1425;-81
2023/05/31 00:49:23;;;;;;;313.00;146.83;;;;;;;18.97;100.00;99622.97;343443;28;1323;-81
2023/05/31 00:49:34;;;;;;;313.30;147.55;;;;;;;18.98;100.00;99621.19;343608;28;1099;-81
2023/05/31 00:49:44;;;;;;;318.50;150.23;;;;;;;18.99;100.00;99614.91;340777;29;1448;-81
2023/05/31 00:49:55;;;;;;;323.10;150.93;;;;;;;18.97;100.00;99619.47;340689;28;1636;-82
2023/05/31 00:50:08;;;;;;;325.27;150.53;;;;;;;18.99;100.00;99623.72;347429;28;1226;-82
2023/05/31 00:50:19;;;;;;;317.15;146.40;;;;;;;19.00;100.00;99619.25;347214;28;1295;-83
2023/05/31 00:50:29;;;;;;;315.63;145.75;;;;;;;19.00;100.00;99625.41;346426;28;1393;-81
2023/05/31 00:50:42;;;;;;;316.42;146.63;;;;;;;19.01;100.00;99619.13;346710;28;934;-82
2023/05/31 00:50:54;;;;;;;316.83;147.87;;;;;;;18.99;100.00;99626.38;344405;28;1461;-81
2023/05/31 00:51:05;;;;;;;317.55;147.73;;;;;;;19.01;100.00;99620.94;343194;28;1446;-81
2023/05/31 00:51:16;;;;;;;319.42;148.57;;;;;;;19.01;100.00;99620.94;344653;28;1244;-81
2023/05/31 00:51:27;;;;;;;320.75;149.15;;;;;;;19.01;100.00;99618.28;343426;28;1335;-81
2023/05/31 00:51:37;;;;;;;321.88;150.93;;;;;;;19.02;100.00;99622.63;338239;29;1404;-81
2023/05/31 00:51:48;;;;;;;321.37;151.70;;;;;;;19.01;100.00;99618.28;336833;28;1341;-81
2023/05/31 00:51:58;;;;;;;318.08;150.35;;;;;;;19.00;100.00;99617.44;334275;29;3017;-81
2023/05/31 00:52:09;;;;;;;319.97;150.90;;;;;;;19.03;100.00;99621.69;337434;29;2806;-81